This is the latest recevied weather packets stored in our database for station/object AD7ZD. If no packets are shown the sender has not sent any weather packets the latest 10 day(s).
| Time | Temp. | Humidity | Pressure | Rain* | Wind** | Luminosity | Snow |
|---|---|---|---|---|---|---|---|
| 1777783143 | 17.22° C | 37% | 1011.3 hPa | 0 mm | - | 0 W/m² | - |
| 1777782839 | 16.67° C | 39% | 1011.4 hPa | 0 mm | - | 0 W/m² | - |
| 1777782535 | 16.67° C | 41% | 1011.4 hPa | 0 mm | - | 0 W/m² | - |
| 1777782232 | 17.22° C | 40% | 1011.4 hPa | 0 mm | - | 0 W/m² | - |
| 1777781928 | 17.22° C | 39% | 1011.3 hPa | 0 mm | - | 0 W/m² | - |
| 1777781625 | 17.22° C | 39% | 1011.3 hPa | 0 mm | - | 0 W/m² | - |
| 1777781323 | 17.22° C | 38% | 1011.2 hPa | 0 mm | - | 0 W/m² | - |
| 1777781021 | 17.22° C | 38% | 1011 hPa | 0 mm | - | 0 W/m² | - |
| 1777780717 | 17.22° C | 38% | 1011.2 hPa | 0 mm | - | 0 W/m² | - |
| 1777780414 | 17.22° C | 39% | 1011.4 hPa | 0 mm | - | 0 W/m² | - |
| 1777780111 | 17.78° C | 36% | 1011.2 hPa | 0 mm | - | 0 W/m² | - |
| 1777779809 | 18.33° C | 34% | 1011.2 hPa | 0 mm | - | 0 W/m² | - |
| 1777779506 | 18.89° C | 33% | 1010.9 hPa | 0 mm | - | 0 W/m² | - |
| 1777779203 | 18.33° C | 35% | 1010.4 hPa | 0 mm | - | 0 W/m² | - |
| 1777778901 | 18.33° C | 35% | 1010.2 hPa | 0 mm | - | 0 W/m² | - |
| 1777778600 | 17.78° C | 37% | 1010.2 hPa | 0 mm | - | 0 W/m² | - |
| 1777778296 | 18.33° C | 35% | 1010.3 hPa | 0 mm | - | 0 W/m² | - |
| 1777777995 | 17.78° C | 38% | 1010.4 hPa | 0 mm | - | 0 W/m² | - |
| 1777777691 | 18.89° C | 35% | 1010.8 hPa | 0 mm | - | 0 W/m² | - |
| 1777777387 | 18.33° C | 36% | 1010.8 hPa | 0 mm | - | 0 W/m² | - |
| 1777777084 | 18.89° C | 35% | 1010.9 hPa | 0 mm | - | 0 W/m² | - |
| 1777776781 | 18.33° C | 36% | 1011 hPa | 0 mm | - | 0 W/m² | - |
| 1777776478 | 18.33° C | 35% | 1011.1 hPa | 0 mm | - | 0 W/m² | - |
| 1777776175 | 18.89° C | 33% | 1010.6 hPa | 0 mm | - | 0 W/m² | - |
| 1777775872 | 18.89° C | 33% | 1010.9 hPa | 0 mm | - | 0 W/m² | - |
* Rain latest hour (hover to see other rain measurements)
** Current wind speed in m/s (hover to see current wind gust speed)